createdAt,value
2019-01-16T00:00:06.774Z,98.80
2019-01-16T00:02:55.937Z,98.80
2019-01-16T00:05:43.069Z,98.90
2019-01-16T00:08:32.597Z,98.50
2019-01-16T00:11:18.622Z,98.50
2019-01-16T00:13:49.500Z,98.60
2019-01-16T00:16:32.657Z,98.60
2019-01-16T00:19:06.242Z,98.60
2019-01-16T00:21:55.107Z,98.70
2019-01-16T00:24:38.088Z,98.70
2019-01-16T00:27:15.153Z,98.70
2019-01-16T00:29:46.032Z,98.60
2019-01-16T00:32:19.512Z,98.50
2019-01-16T00:34:56.033Z,98.70
2019-01-16T00:37:32.682Z,98.60
2019-01-16T00:40:09.191Z,98.60
2019-01-16T00:42:56.320Z,98.40
2019-01-16T00:45:27.499Z,98.20
2019-01-16T00:48:04.560Z,98.00
2019-01-16T00:50:52.111Z,98.10
2019-01-16T00:53:31.864Z,98.20
2019-01-16T00:56:05.823Z,98.20
2019-01-16T00:58:45.948Z,98.30
2019-01-16T01:01:26.019Z,98.20
2019-01-16T01:03:56.895Z,98.10
2019-01-16T01:06:30.768Z,98.20
2019-01-16T01:09:01.574Z,97.90
2019-01-16T01:11:49.158Z,98.00
2019-01-16T01:14:26.024Z,98.10
2019-01-16T01:16:57.829Z,98.00
2019-01-16T01:19:45.113Z,97.80
2019-01-16T01:22:24.861Z,98.10
2019-01-16T01:24:58.712Z,98.10
2019-01-16T01:27:32.286Z,98.10
2019-01-16T01:30:08.668Z,98.10
2019-01-16T01:32:57.850Z,98.10
2019-01-16T01:35:37.709Z,98.40
2019-01-16T01:38:11.271Z,98.00
2019-01-16T01:40:58.360Z,98.20
2019-01-16T01:43:31.972Z,98.30
2019-01-16T01:46:09.070Z,98.40
2019-01-16T01:48:46.136Z,98.40
2019-01-16T01:51:33.436Z,98.40
2019-01-16T01:54:07.168Z,98.20
2019-01-16T01:56:54.525Z,98.40
2019-01-16T01:59:31.038Z,98.20
2019-01-16T02:02:13.721Z,98.20
2019-01-16T02:04:56.858Z,98.20
2019-01-16T02:07:31.485Z,98.20
2019-01-16T02:10:02.361Z,98.10
2019-01-16T02:12:49.449Z,98.00
2019-01-16T02:15:32.596Z,98.00
2019-01-16T02:18:09.773Z,98.00
2019-01-16T02:20:56.346Z,98.40
2019-01-16T02:23:39.213Z,98.20
2019-01-16T02:26:26.722Z,98.40
2019-01-16T02:28:57.599Z,98.50
2019-01-16T02:31:40.420Z,98.40
2019-01-16T02:34:11.244Z,98.80
2019-01-16T02:36:44.743Z,98.60
2019-01-16T02:39:19.344Z,98.30
2019-01-16T02:41:50.220Z,98.40
2019-01-16T02:44:37.326Z,98.40
2019-01-16T02:47:23.554Z,98.30
2019-01-16T02:49:54.423Z,98.40
2019-01-16T02:52:41.809Z,98.40
2019-01-16T02:55:12.690Z,98.50
2019-01-16T02:57:55.408Z,98.50
2019-01-16T03:00:28.700Z,98.50
2019-01-16T03:03:15.798Z,98.50
2019-01-16T03:06:03.140Z,98.60
2019-01-16T03:08:33.972Z,98.50
2019-01-16T03:11:04.874Z,98.30
2019-01-16T03:13:35.765Z,98.40
2019-01-16T03:16:06.565Z,98.40
2019-01-16T03:18:46.114Z,98.80
2019-01-16T03:21:17.003Z,98.50
2019-01-16T03:23:53.943Z,98.50
2019-01-16T03:26:39.833Z,98.60
2019-01-16T03:29:26.879Z,98.50
2019-01-16T03:32:03.457Z,98.60
2019-01-16T03:34:37.070Z,98.70
2019-01-16T03:37:24.149Z,98.80
2019-01-16T03:39:54.981Z,98.60
2019-01-16T03:42:42.356Z,98.60
2019-01-16T03:45:13.188Z,98.60
2019-01-16T03:47:49.749Z,98.70
2019-01-16T03:50:20.653Z,98.70
2019-01-16T03:52:54.653Z,98.70
2019-01-16T03:55:40.589Z,98.60
2019-01-16T03:58:17.352Z,98.50
2019-01-16T04:00:48.185Z,98.70
2019-01-16T04:03:35.409Z,98.70
2019-01-16T04:06:06.410Z,98.70
2019-01-16T04:08:40.009Z,98.60
2019-01-16T04:11:19.642Z,98.60
2019-01-16T04:13:51.613Z,98.60
2019-01-16T04:16:28.474Z,98.80
2019-01-16T04:18:59.296Z,98.80
2019-01-16T04:21:36.342Z,98.80
2019-01-16T04:24:07.246Z,98.70
2019-01-16T04:26:38.047Z,98.90
2019-01-16T04:29:11.629Z,99.00
2019-01-16T04:31:42.508Z,99.00
2019-01-16T04:34:16.333Z,99.00
2019-01-16T04:37:03.361Z,98.90
2019-01-16T04:39:34.195Z,99.00
2019-01-16T04:42:07.909Z,99.10
2019-01-16T04:44:38.749Z,98.80
2019-01-16T04:47:12.398Z,98.60
2019-01-16T04:49:59.489Z,98.50
2019-01-16T04:52:42.500Z,98.60
2019-01-16T04:55:16.313Z,98.70
2019-01-16T04:57:56.112Z,98.80
2019-01-16T05:00:32.724Z,99.00
2019-01-16T05:03:03.528Z,98.50
2019-01-16T05:05:37.112Z,98.50
2019-01-16T05:08:20.328Z,98.50
2019-01-16T05:10:56.864Z,98.50
2019-01-16T05:13:44.128Z,98.40
2019-01-16T05:16:15.013Z,98.50
2019-01-16T05:19:02.410Z,98.40
2019-01-16T05:21:33.233Z,98.60
2019-01-16T05:24:19.411Z,98.70
2019-01-16T05:26:50.297Z,98.80
2019-01-16T05:29:37.301Z,98.90
2019-01-16T05:32:14.278Z,98.90
2019-01-16T05:34:57.086Z,98.80
2019-01-16T05:37:44.330Z,98.90
2019-01-16T05:40:18.199Z,99.10
2019-01-16T05:43:07.120Z,99.30
2019-01-16T05:45:41.103Z,99.60
2019-01-16T05:48:14.641Z,99.70
2019-01-16T05:50:57.807Z,99.90
2019-01-16T05:53:34.408Z,99.90
2019-01-16T05:56:11.040Z,99.90
2019-01-16T05:58:41.848Z,99.90
2019-01-16T06:01:29.180Z,99.90
2019-01-16T06:04:05.700Z,99.90
2019-01-16T06:06:39.336Z,99.90
2019-01-16T06:09:12.996Z,99.80
2019-01-16T06:12:00.183Z,99.60
2019-01-16T06:14:30.993Z,99.20
2019-01-16T06:17:13.853Z,99.30
2019-01-16T06:19:56.911Z,99.00
2019-01-16T06:22:40.117Z,99.10
2019-01-16T06:25:19.999Z,98.90
2019-01-16T06:28:07.444Z,98.70
2019-01-16T06:30:40.933Z,98.40
2019-01-16T06:33:11.754Z,98.30
2019-01-16T06:35:58.713Z,98.60
2019-01-16T06:38:29.622Z,98.50
2019-01-16T06:41:03.096Z,98.40
2019-01-16T06:43:39.712Z,98.50
2019-01-16T06:46:16.347Z,98.60
2019-01-16T06:48:49.902Z,98.60
2019-01-16T06:51:23.712Z,98.80
2019-01-16T06:53:54.517Z,98.70
2019-01-16T06:56:44.772Z,98.80
2019-01-16T06:59:18.286Z,98.90
2019-01-16T07:01:49.115Z,99.10
2019-01-16T07:04:35.237Z,99.20
2019-01-16T07:07:12.008Z,99.50
2019-01-16T07:09:42.893Z,99.70
2019-01-16T07:12:13.797Z,99.90
2019-01-16T07:14:47.617Z,99.90
2019-01-16T07:17:18.442Z,99.90
2019-01-16T07:19:55.321Z,99.90
2019-01-16T07:22:28.876Z,99.90
2019-01-16T07:24:59.685Z,99.90
2019-01-16T07:27:36.537Z,99.90
2019-01-16T07:30:12.990Z,99.90
2019-01-16T07:32:50.676Z,99.90
2019-01-16T07:35:24.192Z,99.90
2019-01-16T07:37:55.017Z,99.90
2019-01-16T07:40:43.850Z,99.90
2019-01-16T07:43:14.673Z,99.90
2019-01-16T07:45:51.236Z,99.90
2019-01-16T07:48:30.915Z,99.90
2019-01-16T07:51:16.761Z,99.90
2019-01-16T07:54:05.484Z,99.90
2019-01-16T07:56:36.292Z,99.90
2019-01-16T07:59:09.912Z,99.90
2019-01-16T08:01:57.016Z,99.90
2019-01-16T08:04:30.387Z,99.90
2019-01-16T08:07:16.588Z,99.90
2019-01-16T08:09:50.314Z,99.90
2019-01-16T08:12:23.798Z,99.90
2019-01-16T08:15:03.652Z,99.90
2019-01-16T08:17:35.041Z,99.90
2019-01-16T08:20:10.826Z,99.90
2019-01-16T08:22:44.400Z,99.90
2019-01-16T08:25:30.709Z,99.90
2019-01-16T08:28:16.645Z,99.90
2019-01-16T08:30:47.565Z,99.90
2019-01-16T08:33:18.445Z,99.90
2019-01-16T08:35:52.233Z,99.90
2019-01-16T08:38:26.032Z,99.90
2019-01-16T08:41:02.933Z,99.90
2019-01-16T08:43:50.294Z,99.90
2019-01-16T08:46:27.327Z,99.90
2019-01-16T08:49:14.701Z,99.90
2019-01-16T08:51:48.273Z,99.90
2019-01-16T08:54:37.565Z,99.90
2019-01-16T08:57:08.440Z,99.90
2019-01-16T08:59:45.159Z,99.90
2019-01-16T09:02:18.797Z,99.90
2019-01-16T09:04:52.597Z,99.90
2019-01-16T09:07:32.618Z,99.60
2019-01-16T09:10:06.404Z,99.40
2019-01-16T09:12:52.333Z,99.20
2019-01-16T09:15:39.566Z,99.30
2019-01-16T09:18:16.249Z,98.80
2019-01-16T09:20:47.235Z,98.70
2019-01-16T09:23:27.527Z,98.50
2019-01-16T09:26:01.190Z,98.10
2019-01-16T09:28:32.080Z,98.10
2019-01-16T09:31:12.154Z,97.90
2019-01-16T09:33:49.014Z,97.50
2019-01-16T09:36:22.802Z,97.20
2019-01-16T09:39:08.726Z,97.10
2019-01-16T09:41:48.670Z,97.30
2019-01-16T09:44:28.667Z,97.20
2019-01-16T09:47:08.607Z,97.30
2019-01-16T09:49:39.523Z,97.60
2019-01-16T09:52:16.306Z,97.30
2019-01-16T09:55:05.512Z,97.50
2019-01-16T09:57:42.190Z,97.60
2019-01-16T10:00:16.223Z,97.30
2019-01-16T10:02:49.818Z,97.20
2019-01-16T10:05:23.696Z,97.00
2019-01-16T10:08:03.578Z,96.90
2019-01-16T10:10:40.449Z,96.50
2019-01-16T10:13:11.342Z,96.90
2019-01-16T10:15:46.174Z,96.30
2019-01-16T10:18:20.231Z,96.40
2019-01-16T10:20:55.659Z,96.20
2019-01-16T10:23:23.654Z,95.90
2019-01-16T10:26:12.796Z,96.00
2019-01-16T10:28:49.406Z,96.00
2019-01-16T10:31:31.987Z,96.30
2019-01-16T10:34:02.889Z,95.80
2019-01-16T10:36:33.809Z,96.00
2019-01-16T10:39:21.326Z,95.60
2019-01-16T10:42:04.351Z,95.50
2019-01-16T10:44:44.208Z,95.40
2019-01-16T10:47:23.884Z,95.50
2019-01-16T10:49:55.870Z,95.50
2019-01-16T10:52:29.755Z,95.30
2019-01-16T10:55:03.639Z,95.70
2019-01-16T10:57:37.419Z,95.60
2019-01-16T11:00:17.710Z,95.20
2019-01-16T11:02:51.552Z,95.30
2019-01-16T11:05:25.659Z,95.00
2019-01-16T11:07:59.304Z,95.00
2019-01-16T11:10:39.123Z,95.30
2019-01-16T11:13:22.272Z,94.90
2019-01-16T11:16:01.935Z,94.50
2019-01-16T11:18:35.738Z,94.40
2019-01-16T11:21:15.391Z,94.10
2019-01-16T11:24:02.597Z,94.00
2019-01-16T11:26:46.755Z,94.10
2019-01-16T11:29:29.904Z,94.10
2019-01-16T11:32:09.628Z,94.10
2019-01-16T11:34:49.291Z,94.20
2019-01-16T11:37:22.905Z,94.40
2019-01-16T11:39:53.795Z,94.80
2019-01-16T11:42:39.948Z,95.00
2019-01-16T11:45:16.980Z,94.40
2019-01-16T11:48:04.327Z,95.00
2019-01-16T11:50:51.682Z,95.40
2019-01-16T11:53:34.331Z,95.80
2019-01-16T11:56:10.930Z,95.60
2019-01-16T11:58:54.006Z,95.20
2019-01-16T12:01:43.011Z,95.40
2019-01-16T12:04:13.915Z,95.10
2019-01-16T12:06:47.486Z,95.20
2019-01-16T12:09:18.407Z,95.30
2019-01-16T12:11:55.443Z,94.90
2019-01-16T12:14:32.463Z,95.30
2019-01-16T12:17:09.251Z,95.30
2019-01-16T12:19:40.186Z,95.30
2019-01-16T12:22:27.294Z,95.50
2019-01-16T12:25:07.371Z,95.60
2019-01-16T12:27:47.299Z,95.70
2019-01-16T12:30:23.330Z,96.10
2019-01-16T12:32:57.471Z,96.10
2019-01-16T12:35:44.647Z,96.00
2019-01-16T12:38:21.502Z,96.00
2019-01-16T12:41:04.651Z,95.70
2019-01-16T12:43:47.378Z,96.00
2019-01-16T12:46:18.266Z,96.00
2019-01-16T12:49:06.015Z,95.80
2019-01-16T12:51:49.287Z,95.90
2019-01-16T12:54:20.215Z,95.90
2019-01-16T12:57:03.154Z,95.70
2019-01-16T12:59:36.734Z,95.80
2019-01-16T13:02:13.605Z,95.40
2019-01-16T13:04:50.541Z,95.40
2019-01-16T13:07:27.478Z,95.30
2019-01-16T13:09:58.399Z,95.30
2019-01-16T13:12:35.273Z,95.30
2019-01-16T13:15:19.043Z,95.30
2019-01-16T13:17:49.938Z,95.00
2019-01-16T13:20:29.582Z,95.00
2019-01-16T13:23:18.051Z,94.70
2019-01-16T13:26:05.432Z,94.30
2019-01-16T13:28:53.033Z,94.50
2019-01-16T13:31:23.937Z,94.60
2019-01-16T13:33:54.846Z,94.10
2019-01-16T13:36:25.754Z,94.20
2019-01-16T13:38:56.686Z,94.30
2019-01-16T13:41:27.576Z,94.20
2019-01-16T13:44:01.670Z,94.00
2019-01-16T13:46:35.454Z,94.30
2019-01-16T13:49:09.291Z,94.30
2019-01-16T13:51:56.713Z,94.50
2019-01-16T13:54:30.639Z,94.60
2019-01-16T13:57:04.403Z,94.70
2019-01-16T13:59:52.594Z,94.50
2019-01-16T14:02:32.723Z,94.60
2019-01-16T14:05:03.655Z,94.80
2019-01-16T14:07:37.234Z,94.40
2019-01-16T14:10:11.450Z,94.60
2019-01-16T14:13:00.652Z,94.20
2019-01-16T14:15:31.561Z,94.50
2019-01-16T14:18:17.206Z,94.30
2019-01-16T14:21:04.550Z,94.40
2019-01-16T14:23:47.641Z,94.00
2019-01-16T14:26:24.359Z,94.10
2019-01-16T14:28:55.246Z,93.70
2019-01-16T14:31:32.191Z,93.70
2019-01-16T14:34:12.128Z,93.90
2019-01-16T14:36:59.547Z,93.70
2019-01-16T14:39:33.163Z,93.50
2019-01-16T14:42:10.245Z,93.10
2019-01-16T14:44:43.915Z,93.40
2019-01-16T14:47:26.919Z,93.30
2019-01-16T14:50:16.192Z,93.40
2019-01-16T14:53:03.286Z,93.50
2019-01-16T14:55:34.210Z,93.40
2019-01-16T14:58:17.118Z,93.30
2019-01-16T15:00:53.883Z,93.00
2019-01-16T15:03:37.088Z,93.00
2019-01-16T15:06:10.664Z,93.30
2019-01-16T15:08:47.539Z,93.00
2019-01-16T15:11:21.421Z,92.70
2019-01-16T15:13:57.978Z,93.20
2019-01-16T15:16:28.886Z,92.70
2019-01-16T15:19:08.829Z,93.00
2019-01-16T15:21:51.655Z,93.20
2019-01-16T15:24:40.502Z,93.20
2019-01-16T15:27:17.402Z,92.80
2019-01-16T15:30:03.561Z,93.00
2019-01-16T15:32:43.842Z,92.70
2019-01-16T15:35:14.739Z,93.10
2019-01-16T15:37:48.753Z,92.80
2019-01-16T15:40:19.575Z,93.00
2019-01-16T15:42:53.139Z,93.30
2019-01-16T15:45:27.017Z,93.20
2019-01-16T15:47:57.931Z,93.40
2019-01-16T15:50:45.049Z,93.10
2019-01-16T15:53:15.967Z,93.10
2019-01-16T15:55:49.856Z,93.30
2019-01-16T15:58:33.090Z,93.30
2019-01-16T16:01:22.250Z,93.30
2019-01-16T16:04:03.806Z,93.60
2019-01-16T16:06:50.016Z,93.10
2019-01-16T16:09:20.919Z,93.30
2019-01-16T16:12:09.998Z,93.30
2019-01-16T16:14:40.894Z,93.30
2019-01-16T16:17:17.769Z,92.80
2019-01-16T16:20:01.002Z,93.20
2019-01-16T16:22:31.938Z,93.20
2019-01-16T16:25:05.620Z,93.40
2019-01-16T16:27:54.739Z,93.20
2019-01-16T16:30:25.895Z,93.20
2019-01-16T16:32:57.206Z,93.50
2019-01-16T16:35:28.102Z,93.10
2019-01-16T16:37:59.019Z,93.20
2019-01-16T16:40:42.185Z,93.40
2019-01-16T16:43:31.225Z,93.40
2019-01-16T16:46:05.062Z,93.40
2019-01-16T16:48:51.110Z,93.20
2019-01-16T16:51:30.895Z,93.10
2019-01-16T16:54:01.805Z,93.40
2019-01-16T16:56:47.722Z,93.30
2019-01-16T16:59:24.520Z,93.50
2019-01-16T17:02:01.267Z,93.40
2019-01-16T17:04:48.482Z,93.40
2019-01-16T17:07:19.383Z,93.20
2019-01-16T17:09:56.768Z,93.30
2019-01-16T17:12:44.547Z,93.20
2019-01-16T17:15:18.183Z,93.20
2019-01-16T17:18:05.480Z,93.40
2019-01-16T17:20:37.496Z,93.50
2019-01-16T17:23:11.347Z,93.40
2019-01-16T17:25:42.259Z,93.50
2019-01-16T17:28:25.159Z,93.70
2019-01-16T17:31:01.815Z,93.70
2019-01-16T17:33:36.154Z,93.50
2019-01-16T17:36:09.987Z,93.70
2019-01-16T17:38:53.012Z,93.70
2019-01-16T17:41:29.978Z,93.60
2019-01-16T17:44:10.075Z,93.60
2019-01-16T17:46:43.935Z,93.80
2019-01-16T17:49:14.860Z,93.70
2019-01-16T17:51:51.298Z,93.60
2019-01-16T17:54:27.982Z,93.60
2019-01-16T17:57:15.124Z,93.50
2019-01-16T17:59:46.054Z,93.50
2019-01-16T18:02:25.894Z,93.70
2019-01-16T18:04:59.883Z,93.70
2019-01-16T18:07:30.774Z,93.60
2019-01-16T18:10:01.711Z,93.70
2019-01-16T18:12:35.627Z,93.70
2019-01-16T18:15:14.743Z,93.60
2019-01-16T18:17:51.682Z,93.80
2019-01-16T18:20:34.880Z,94.00
2019-01-16T18:23:17.795Z,93.90
2019-01-16T18:26:00.866Z,93.60
2019-01-16T18:28:34.542Z,93.70
2019-01-16T18:31:05.527Z,93.60
2019-01-16T18:33:42.400Z,93.70
2019-01-16T18:36:20.062Z,93.70
2019-01-16T18:38:53.595Z,93.90
2019-01-16T18:41:27.255Z,93.80
2019-01-16T18:44:00.872Z,93.70
2019-01-16T18:46:31.792Z,93.70
2019-01-16T18:49:08.350Z,93.70
2019-01-16T18:51:54.629Z,93.90
2019-01-16T18:54:31.472Z,94.00
2019-01-16T18:57:11.155Z,94.00
2019-01-16T18:59:58.051Z,94.00
2019-01-16T19:02:41.000Z,94.00
2019-01-16T19:05:28.251Z,94.00
2019-01-16T19:08:02.122Z,94.20
2019-01-16T19:10:42.040Z,94.30
2019-01-16T19:13:30.409Z,94.20
2019-01-16T19:16:13.336Z,94.20
2019-01-16T19:18:44.247Z,94.20
2019-01-16T19:21:17.990Z,94.10
2019-01-16T19:23:59.092Z,94.30
2019-01-16T19:26:38.836Z,94.00
2019-01-16T19:29:24.802Z,94.00
2019-01-16T19:32:01.463Z,94.10
2019-01-16T19:34:32.356Z,94.00
2019-01-16T19:37:03.267Z,93.90
2019-01-16T19:39:34.155Z,93.90
2019-01-16T19:42:21.292Z,93.80
2019-01-16T19:45:07.422Z,93.70
2019-01-16T19:47:55.301Z,93.70
2019-01-16T19:50:26.291Z,93.60
2019-01-16T19:53:09.371Z,93.60
2019-01-16T19:55:56.456Z,93.70
2019-01-16T19:58:27.383Z,93.50
2019-01-16T20:01:03.815Z,93.30
2019-01-16T20:03:40.582Z,93.50
2019-01-16T20:06:26.758Z,93.60
2019-01-16T20:09:09.586Z,93.40
2019-01-16T20:11:43.181Z,93.30
2019-01-16T20:14:32.038Z,93.40
2019-01-16T20:17:06.204Z,93.20
2019-01-16T20:19:48.903Z,93.10
2019-01-16T20:22:22.491Z,93.20
2019-01-16T20:25:09.738Z,93.30
2019-01-16T20:27:43.583Z,93.20
2019-01-16T20:30:21.451Z,93.30
2019-01-16T20:32:52.371Z,93.30
2019-01-16T20:35:39.818Z,93.00
2019-01-16T20:38:16.726Z,93.20
2019-01-16T20:41:04.098Z,93.00
2019-01-16T20:43:37.656Z,93.10
2019-01-16T20:46:11.547Z,93.10
2019-01-16T20:48:59.279Z,92.90
2019-01-16T20:52:06.104Z,92.90
2019-01-16T20:54:45.971Z,92.80
2019-01-16T20:57:26.330Z,92.80
2019-01-16T21:00:03.150Z,92.80
2019-01-16T21:02:37.598Z,92.80
2019-01-16T21:05:25.095Z,92.80
2019-01-16T21:08:11.246Z,92.80
2019-01-16T21:10:42.138Z,93.00
2019-01-16T21:13:21.957Z,92.70
2019-01-16T21:15:52.843Z,92.90
2019-01-16T21:18:26.937Z,92.80
2019-01-16T21:20:57.829Z,93.10
2019-01-16T21:23:44.898Z,92.80
2019-01-16T21:26:30.850Z,92.80
2019-01-16T21:29:18.267Z,93.20
2019-01-16T21:31:52.090Z,92.70
2019-01-16T21:34:23.010Z,92.50
2019-01-16T21:36:57.015Z,92.80
2019-01-16T21:39:27.939Z,92.40
2019-01-16T21:42:01.791Z,92.70
2019-01-16T21:44:32.708Z,92.60
2019-01-16T21:47:20.140Z,92.50
2019-01-16T21:49:57.285Z,92.60
2019-01-16T21:52:31.145Z,92.30
2019-01-16T21:55:18.391Z,92.30
2019-01-16T21:57:58.083Z,91.80
2019-01-16T22:00:41.271Z,92.10
2019-01-16T22:03:24.326Z,92.20
2019-01-16T22:06:11.613Z,91.90
2019-01-16T22:08:48.223Z,91.60
2019-01-16T22:11:35.292Z,91.50
2019-01-16T22:14:09.074Z,91.70
2019-01-16T22:16:40.004Z,91.60
2019-01-16T22:19:16.584Z,91.60
2019-01-16T22:21:47.480Z,91.80
2019-01-16T22:24:18.392Z,91.80
2019-01-16T22:27:04.382Z,91.80
2019-01-16T22:29:35.223Z,91.90
2019-01-16T22:32:06.115Z,91.40
2019-01-16T22:34:46.218Z,91.50
2019-01-16T22:37:17.110Z,91.70
2019-01-16T22:40:03.088Z,91.50
2019-01-16T22:42:49.156Z,91.60
2019-01-16T22:45:26.115Z,91.80
2019-01-16T22:47:57.016Z,91.80
2019-01-16T22:50:27.926Z,92.00
2019-01-16T22:53:04.797Z,92.10
2019-01-16T22:55:47.775Z,92.10
2019-01-16T22:58:27.639Z,92.10
2019-01-16T23:01:13.647Z,92.10
2019-01-16T23:03:45.919Z,92.50
2019-01-16T23:06:16.840Z,92.30
2019-01-16T23:08:47.738Z,92.60
2019-01-16T23:11:27.608Z,92.50
2019-01-16T23:14:01.464Z,92.80
2019-01-16T23:16:38.495Z,92.70
2019-01-16T23:19:24.583Z,93.00
2019-01-16T23:21:55.498Z,92.90
2019-01-16T23:24:38.268Z,93.20
2019-01-16T23:27:17.928Z,93.70
2019-01-16T23:29:50.363Z,94.10
2019-01-16T23:32:21.566Z,93.70
2019-01-16T23:34:58.301Z,93.90
2019-01-16T23:37:29.203Z,94.30
2019-01-16T23:40:00.223Z,94.20
2019-01-16T23:42:46.362Z,94.50
2019-01-16T23:45:32.282Z,94.80
2019-01-16T23:48:12.134Z,94.80
2019-01-16T23:50:58.114Z,95.00
2019-01-16T23:53:45.543Z,95.10
2019-01-16T23:56:32.766Z,95.40
2019-01-16T23:59:03.657Z,95.60
